Time;durP1;ratioP1;P1;durP2;ratioP2;P2;SDS_P1;SDS_P2;PMS_P1;PMS_P2;Temp;Humidity;BMP_temperature;BMP_pressure;BME280_temperature;BME280_humidity;BME280_pressure;Samples;Min_cycle;Max_cycle;Signal;HPM_P1;HPM_P2
2022/05/01 00:00:49;;;;;;;13.77;7.65;;;11.80;93.80;;;;;;5084803;28;20122;-50
2022/05/01 00:03:31;;;;;;;13.82;7.95;;;11.80;93.70;;;;;;5085912;28;20491;-53
2022/05/01 00:05:58;;;;;;;9.15;7.10;;;11.80;93.70;;;;;;5080016;28;20078;-49
2022/05/01 00:08:25;;;;;;;9.43;7.22;;;11.80;93.60;;;;;;5081844;28;20075;-53
2022/05/01 00:10:53;;;;;;;10.70;7.85;;;11.80;93.40;;;;;;5076407;28;20040;-51
2022/05/01 00:13:39;;;;;;;11.77;7.97;;;11.80;93.30;;;;;;5074788;28;20041;-48
2022/05/01 00:16:06;;;;;;;10.43;7.20;;;11.80;93.40;;;;;;5080150;28;20090;-50
2022/05/01 00:18:33;;;;;;;9.48;7.18;;;11.80;93.40;;;;;;5087885;28;20050;-49
2022/05/01 00:21:00;;;;;;;11.45;7.45;;;11.80;93.30;;;;;;5079546;28;20377;-52
2022/05/01 00:23:27;;;;;;;11.82;7.40;;;11.80;93.30;;;;;;5082338;28;20040;-53
2022/05/01 00:25:54;;;;;;;11.60;7.30;;;11.80;93.20;;;;;;5080375;28;20044;-53
2022/05/01 00:28:20;;;;;;;12.68;7.43;;;11.80;93.10;;;;;;5080053;28;20040;-52
2022/05/01 00:30:48;;;;;;;8.30;6.75;;;11.80;93.00;;;;;;5072289;28;20039;-54
2022/05/01 00:38:46;;;;;;;8.35;6.47;;;11.80;92.70;;;;;;5074135;28;20048;-54
2022/05/01 00:41:12;;;;;;;10.20;6.57;;;11.80;92.70;;;;;;5084627;28;20540;-52
2022/05/01 00:43:39;;;;;;;7.78;6.45;;;11.80;92.50;;;;;;5084129;28;20060;-51
2022/05/01 00:46:06;;;;;;;8.18;6.25;;;11.90;92.50;;;;;;5086977;28;20519;-53
2022/05/01 00:48:33;;;;;;;10.63;6.85;;;11.90;92.40;;;;;;5080622;28;20032;-54
2022/05/01 00:51:00;;;;;;;6.75;5.68;;;12.00;92.40;;;;;;5077700;28;20429;-50
2022/05/01 00:53:26;;;;;;;9.15;5.95;;;11.90;92.40;;;;;;5090950;28;20406;-53
2022/05/01 00:55:53;;;;;;;10.07;6.38;;;11.90;92.10;;;;;;5082366;28;20480;-56
2022/05/01 00:58:20;;;;;;;10.73;5.97;;;11.90;91.80;;;;;;5080904;28;20036;-53
2022/05/01 01:00:47;;;;;;;8.82;5.82;;;11.90;91.80;;;;;;5073571;28;20115;-50
2022/05/01 01:03:13;;;;;;;9.88;5.93;;;11.90;91.50;;;;;;5073584;28;20052;-51
2022/05/01 01:05:40;;;;;;;9.52;5.85;;;11.90;91.50;;;;;;5079757;28;20131;-51
2022/05/01 01:08:07;;;;;;;10.13;5.57;;;11.80;91.40;;;;;;5078259;28;20040;-48
2022/05/01 01:10:34;;;;;;;7.97;5.82;;;11.80;91.30;;;;;;5090413;28;20074;-50
2022/05/01 01:13:01;;;;;;;8.70;5.32;;;11.80;91.20;;;;;;5085715;28;20501;-49
2022/05/01 01:15:32;;;;;;;9.70;5.28;;;11.80;91.20;;;;;;5081986;28;20449;-49
2022/05/01 01:17:58;;;;;;;10.80;5.85;;;11.90;91.00;;;;;;5085220;28;20040;-51
2022/05/01 01:20:25;;;;;;;7.22;4.80;;;11.80;90.80;;;;;;5081276;28;20072;-50
2022/05/01 01:22:52;;;;;;;8.20;5.45;;;11.80;90.80;;;;;;5073022;28;20113;-52
2022/05/01 01:25:19;;;;;;;8.07;5.50;;;11.80;90.50;;;;;;5077361;28;20048;-52
2022/05/01 01:27:46;;;;;;;7.93;5.75;;;11.80;90.60;;;;;;5089961;28;20040;-53
2022/05/01 01:32:58;;;;;;;7.03;5.20;;;11.90;90.60;;;;;;5088600;28;20036;-50
2022/05/01 01:35:24;;;;;;;7.35;5.25;;;11.90;90.30;;;;;;5077292;28;20091;-52
2022/05/01 01:37:51;;;;;;;7.05;4.70;;;11.90;90.20;;;;;;5079258;28;20041;-53
2022/05/01 01:40:18;;;;;;;7.97;5.18;;;11.90;90.00;;;;;;5089809;28;20079;-53
2022/05/01 01:42:45;;;;;;;6.88;4.95;;;11.90;90.10;;;;;;5085464;28;20445;-53
2022/05/01 01:45:12;;;;;;;7.07;4.43;;;11.80;90.00;;;;;;5081276;28;20115;-47
2022/05/01 01:47:39;;;;;;;9.18;5.07;;;11.80;90.00;;;;;;5085241;28;20044;-54
2022/05/01 01:50:05;;;;;;;6.43;4.63;;;11.80;89.50;;;;;;5084077;28;20036;-47
2022/05/01 01:52:35;;;;;;;8.00;4.97;;;11.80;89.80;;;;;;5079057;28;20051;-51
2022/05/01 01:55:01;;;;;;;8.20;5.57;;;11.80;89.30;;;;;;5079112;28;20068;-53
2022/05/01 01:57:29;;;;;;;10.43;5.53;;;11.80;89.40;;;;;;5083179;28;20040;-52
2022/05/01 01:59:55;;;;;;;9.20;4.93;;;11.80;89.20;;;;;;5090631;28;20116;-54
2022/05/01 02:02:22;;;;;;;8.57;5.70;;;11.80;89.10;;;;;;5083714;28;20119;-51
2022/05/01 02:04:49;;;;;;;7.28;5.18;;;11.80;89.00;;;;;;5083564;28;20068;-50
2022/05/01 02:07:16;;;;;;;8.95;5.80;;;11.80;88.70;;;;;;5081513;28;20041;-52
2022/05/01 02:09:43;;;;;;;8.73;5.57;;;11.80;88.90;;;;;;5084593;28;20495;-50
2022/05/01 02:12:10;;;;;;;9.77;5.80;;;11.80;88.90;;;;;;5088556;28;20047;-53
2022/05/01 02:14:37;;;;;;;7.47;5.35;;;11.80;88.50;;;;;;5083893;28;20348;-50
2022/05/01 02:17:03;;;;;;;7.10;5.38;;;11.90;88.90;;;;;;5078507;28;20051;-51
2022/05/01 02:19:30;;;;;;;8.85;5.22;;;11.80;88.80;;;;;;5088351;28;20044;-52
2022/05/01 02:21:57;;;;;;;7.22;5.38;;;11.80;88.70;;;;;;5083188;28;20044;-52
2022/05/01 02:24:25;;;;;;;7.20;5.45;;;11.80;88.70;;;;;;5088329;28;20072;-54
2022/05/01 02:26:52;;;;;;;9.20;5.90;;;11.80;88.80;;;;;;5082570;28;20387;-50
2022/05/01 02:29:18;;;;;;;9.32;5.53;;;11.80;88.70;;;;;;5088727;28;20076;-51
2022/05/01 02:31:45;;;;;;;7.25;5.88;;;11.80;88.90;;;;;;5077316;28;20049;-52
2022/05/01 02:34:12;;;;;;;10.93;5.78;;;11.80;89.10;;;;;;5079837;28;20111;-47
2022/05/01 02:36:38;;;;;;;10.57;6.57;;;11.80;89.10;;;;;;5083420;28;20040;-49
2022/05/01 02:39:05;;;;;;;10.07;6.82;;;11.80;89.30;;;;;;5089845;28;20486;-52
2022/05/01 02:41:32;;;;;;;8.85;6.78;;;11.80;89.50;;;;;;5081831;28;20075;-49
2022/05/01 02:43:59;;;;;;;9.68;6.97;;;11.80;89.60;;;;;;5088972;28;20546;-48
2022/05/01 02:46:26;;;;;;;10.45;6.63;;;11.80;89.80;;;;;;5086014;28;20032;-48
2022/05/01 02:48:53;;;;;;;10.73;7.40;;;11.70;89.90;;;;;;5086696;28;20044;-48
2022/05/01 02:51:19;;;;;;;9.07;6.60;;;11.70;90.00;;;;;;5091599;28;20071;-51
2022/05/01 02:53:46;;;;;;;9.70;7.30;;;11.70;90.10;;;;;;5093277;28;20545;-54
2022/05/01 02:56:13;;;;;;;12.25;7.35;;;11.70;90.10;;;;;;5094891;28;20040;-53
2022/05/01 02:58:39;;;;;;;13.15;8.63;;;11.70;90.10;;;;;;5081243;28;20079;-46
2022/05/01 03:01:06;;;;;;;9.73;7.55;;;11.70;90.20;;;;;;5077058;28;20037;-50
2022/05/01 03:03:33;;;;;;;11.55;8.07;;;11.70;90.30;;;;;;5094580;28;20083;-55
2022/05/01 03:06:00;;;;;;;11.80;7.65;;;11.70;90.30;;;;;;5079095;28;20045;-52
2022/05/01 03:08:27;;;;;;;8.85;7.63;;;11.70;90.40;;;;;;5087830;28;20043;-52
2022/05/01 03:10:53;;;;;;;11.10;8.10;;;11.60;90.50;;;;;;5085299;28;20043;-53
2022/05/01 03:13:19;;;;;;;12.05;7.75;;;11.60;90.50;;;;;;5087428;28;20448;-46
2022/05/01 03:15:46;;;;;;;9.80;7.30;;;11.60;90.50;;;;;;5079275;28;20043;-48
2022/05/01 03:23:44;;;;;;;11.07;7.50;;;11.60;90.60;;;;;;5078134;28;20102;-51
2022/05/01 03:26:11;;;;;;;11.60;7.40;;;11.60;90.50;;;;;;5087976;28;20081;-49
2022/05/01 03:28:37;;;;;;;10.65;7.43;;;11.60;90.50;;;;;;5086662;28;20466;-47
2022/05/01 03:31:09;;;;;;;10.80;7.93;;;11.60;90.50;;;;;;5081217;28;20074;-51
2022/05/01 03:33:35;;;;;;;11.05;7.97;;;11.60;90.50;;;;;;5076339;28;20036;-54
2022/05/01 03:36:05;;;;;;;11.45;7.70;;;11.60;90.50;;;;;;5079623;28;20081;-51
2022/05/01 03:38:31;;;;;;;10.43;7.50;;;11.60;90.50;;;;;;5078151;28;20141;-48
2022/05/01 03:40:58;;;;;;;10.18;7.35;;;11.60;90.50;;;;;;5082967;28;20111;-54
2022/05/01 03:43:25;;;;;;;10.98;7.20;;;11.60;90.50;;;;;;5082213;28;20376;-52
2022/05/01 03:45:51;;;;;;;10.38;7.22;;;11.60;90.40;;;;;;5075518;28;20075;-49
2022/05/01 03:48:18;;;;;;;8.20;7.05;;;11.60;90.50;;;;;;5089526;28;20075;-54
2022/05/01 03:50:45;;;;;;;11.32;7.50;;;11.60;90.40;;;;;;5090365;28;20063;-51
2022/05/01 03:53:12;;;;;;;12.27;7.60;;;11.60;90.30;;;;;;5079422;28;20040;-53
2022/05/01 03:55:38;;;;;;;9.45;7.18;;;11.60;90.20;;;;;;5086019;28;20115;-50
2022/05/01 03:58:05;;;;;;;9.77;7.10;;;11.60;90.10;;;;;;5093031;28;20483;-54
2022/05/01 04:00:32;;;;;;;11.13;7.07;;;11.60;90.20;;;;;;5085893;28;20040;-51
2022/05/01 04:02:59;;;;;;;8.73;7.07;;;11.60;90.10;;;;;;5085264;28;20067;-53
2022/05/01 04:05:25;;;;;;;8.90;6.65;;;11.60;90.00;;;;;;5089120;28;20392;-52
2022/05/01 04:07:52;;;;;;;10.48;7.47;;;11.60;89.90;;;;;;5089263;28;20051;-51
2022/05/01 04:10:19;;;;;;;10.60;7.03;;;11.60;89.80;;;;;;5076679;28;20113;-52
2022/05/01 04:12:46;;;;;;;12.05;6.88;;;11.60;89.80;;;;;;5079014;28;20063;-54
2022/05/01 04:15:14;;;;;;;8.25;6.72;;;11.60;89.90;;;;;;5077210;28;20075;-52
2022/05/01 04:17:40;;;;;;;10.48;6.93;;;11.60;90.00;;;;;;5086035;28;20453;-51
2022/05/01 04:20:08;;;;;;;11.15;7.05;;;11.60;90.00;;;;;;5082591;28;20479;-49
2022/05/01 04:22:35;;;;;;;9.55;6.80;;;11.50;89.90;;;;;;5083151;28;20439;-52
2022/05/01 04:25:03;;;;;;;10.55;6.80;;;11.50;90.00;;;;;;5091838;28;20078;-48
2022/05/01 04:27:29;;;;;;;9.90;7.20;;;11.50;89.80;;;;;;5085380;28;20044;-49
2022/05/01 04:29:56;;;;;;;10.35;6.95;;;11.50;89.80;;;;;;5090630;28;20498;-52
2022/05/01 04:32:23;;;;;;;8.73;6.65;;;11.50;89.60;;;;;;5081522;28;20123;-53
2022/05/01 04:34:50;;;;;;;11.40;6.70;;;11.60;89.80;;;;;;5077895;28;20113;-49
2022/05/01 04:37:17;;;;;;;8.77;6.28;;;11.50;89.70;;;;;;5087492;28;20032;-49
2022/05/01 04:39:43;;;;;;;9.05;6.10;;;11.50;89.50;;;;;;5080007;28;20495;-53
2022/05/01 04:42:11;;;;;;;11.20;6.10;;;11.50;89.60;;;;;;5079236;28;20514;-52
2022/05/01 04:44:38;;;;;;;8.65;6.40;;;11.50;89.60;;;;;;5081786;28;20050;-47
2022/05/01 04:47:04;;;;;;;8.02;6.22;;;11.50;89.90;;;;;;5085234;28;20499;-54
2022/05/01 04:49:31;;;;;;;9.88;6.32;;;11.60;89.70;;;;;;5079659;28;20457;-51
2022/05/01 04:51:58;;;;;;;8.50;6.60;;;11.50;89.50;;;;;;5079642;28;20056;-54
2022/05/01 04:54:24;;;;;;;8.70;6.28;;;11.60;89.40;;;;;;5079053;28;20119;-50
2022/05/01 04:57:08;;;;;;;10.20;6.40;;;11.60;89.60;;;;;;5079006;28;20185;-52
2022/05/01 04:59:35;;;;;;;8.05;6.60;;;11.60;89.50;;;;;;5082911;28;20032;-53
2022/05/01 05:02:03;;;;;;;9.63;6.25;;;11.50;89.50;;;;;;5079865;28;20075;-51
2022/05/01 05:04:31;;;;;;;8.20;6.13;;;11.60;89.50;;;;;;5081135;28;20047;-48
2022/05/01 05:06:57;;;;;;;10.35;6.38;;;11.60;89.40;;;;;;5087842;28;20471;-49
2022/05/01 05:12:10;;;;;;;;;;;11.60;89.50;;;;;;5086561;28;20478;-54
2022/05/01 05:14:37;;;;;;;9.32;5.90;;;11.60;89.50;;;;;;5084162;28;19967;-56
2022/05/01 05:17:07;;;;;;;9.48;6.05;;;11.60;89.40;;;;;;5077885;28;20040;-57
2022/05/01 05:19:34;;;;;;;9.85;6.30;;;11.60;89.40;;;;;;5080109;28;20475;-50
2022/05/01 05:22:01;;;;;;;9.63;5.65;;;11.60;90.00;;;;;;5081827;28;20048;-51
2022/05/01 05:24:27;;;;;;;12.23;6.18;;;11.60;89.40;;;;;;5082316;28;20115;-54
2022/05/01 05:26:54;;;;;;;8.73;6.30;;;11.70;89.60;;;;;;5079148;28;20044;-53
2022/05/01 05:29:21;;;;;;;8.88;6.35;;;11.70;89.40;;;;;;5088872;28;20467;-54
2022/05/01 05:31:47;;;;;;;11.13;6.07;;;11.70;89.30;;;;;;5084200;28;20485;-52
2022/05/01 05:34:14;;;;;;;7.90;5.45;;;11.70;89.90;;;;;;5081809;28;20454;-50
2022/05/01 05:36:41;;;;;;;7.75;5.93;;;11.70;89.30;;;;;;5092776;28;20040;-54
2022/05/01 05:39:08;;;;;;;8.10;6.18;;;11.70;89.20;;;;;;5091200;28;20075;-52
2022/05/01 05:41:35;;;;;;;8.90;6.00;;;11.70;89.40;;;;;;5085201;28;20033;-54
2022/05/01 05:44:02;;;;;;;7.45;6.13;;;11.70;89.40;;;;;;5084497;28;20067;-54
2022/05/01 05:46:28;;;;;;;7.68;5.85;;;11.70;89.20;;;;;;5094200;28;20487;-51
2022/05/01 05:48:55;;;;;;;10.00;6.05;;;11.70;89.40;;;;;;5082991;28;20043;-52
2022/05/01 05:51:22;;;;;;;9.35;5.95;;;11.70;89.50;;;;;;5083568;28;20036;-56
2022/05/01 05:53:49;;;;;;;7.78;5.68;;;11.70;89.50;;;;;;5083817;28;20101;-55
2022/05/01 05:56:15;;;;;;;8.85;6.55;;;11.80;89.30;;;;;;5079703;28;20110;-50
2022/05/01 05:58:42;;;;;;;9.02;5.75;;;11.80;89.40;;;;;;5086258;28;20064;-48
2022/05/01 06:01:10;;;;;;;7.60;5.90;;;11.80;89.20;;;;;;5083875;28;20102;-54
2022/05/01 06:03:36;;;;;;;10.48;6.35;;;11.90;88.90;;;;;;5085672;28;20033;-54
2022/05/01 06:06:03;;;;;;;12.70;6.35;;;11.90;88.90;;;;;;5085167;28;20062;-52
2022/05/01 06:08:30;;;;;;;8.23;5.93;;;12.00;89.10;;;;;;5079036;28;20079;-55
2022/05/01 06:10:57;;;;;;;9.50;6.18;;;12.00;89.00;;;;;;5081178;28;20043;-47
2022/05/01 06:13:23;;;;;;;6.93;5.88;;;12.00;88.50;;;;;;5086880;28;20169;-47
2022/05/01 06:15:50;;;;;;;10.45;6.18;;;12.10;88.30;;;;;;5079575;28;20036;-54
2022/05/01 06:18:17;;;;;;;10.70;5.97;;;12.10;88.80;;;;;;5082020;28;20426;-48
2022/05/01 06:20:44;;;;;;;7.15;6.13;;;12.20;88.60;;;;;;5085588;28;20083;-51
2022/05/01 06:23:11;;;;;;;7.72;5.90;;;12.20;88.40;;;;;;5084855;28;20041;-57
2022/05/01 06:25:39;;;;;;;8.77;6.22;;;12.30;88.10;;;;;;5093563;28;20114;-52
2022/05/01 06:28:06;;;;;;;8.25;6.03;;;12.30;88.40;;;;;;5080805;28;20115;-51
2022/05/01 06:30:33;;;;;;;7.32;5.82;;;12.40;88.20;;;;;;5081869;28;20495;-47
2022/05/01 06:32:59;;;;;;;8.68;6.68;;;12.40;88.20;;;;;;5082697;28;20067;-49
2022/05/01 06:35:31;;;;;;;8.43;6.30;;;12.50;88.10;;;;;;5076081;28;20094;-52
2022/05/01 06:37:58;;;;;;;13.10;6.30;;;12.50;87.70;;;;;;5082778;28;20068;-48
2022/05/01 06:40:24;;;;;;;8.77;5.50;;;12.60;87.40;;;;;;5084502;28;20107;-53
2022/05/01 06:42:51;;;;;;;7.55;6.28;;;12.70;87.30;;;;;;5081973;28;20033;-55
2022/05/01 06:45:18;;;;;;;7.90;6.50;;;12.70;86.50;;;;;;5087524;28;20052;-53
2022/05/01 06:47:45;;;;;;;8.52;6.25;;;12.70;86.50;;;;;;5080198;28;20049;-50
2022/05/01 06:50:11;;;;;;;7.65;5.82;;;12.80;86.50;;;;;;5084848;28;20123;-51
2022/05/01 06:52:38;;;;;;;8.52;6.40;;;12.80;86.70;;;;;;5080263;28;20101;-51
2022/05/01 06:55:05;;;;;;;8.20;6.03;;;13.00;86.20;;;;;;5084606;28;20526;-52
2022/05/01 06:57:31;;;;;;;9.60;6.07;;;13.00;85.60;;;;;;5084010;28;20098;-51
2022/05/01 06:59:58;;;;;;;10.60;6.05;;;13.10;85.40;;;;;;5084333;28;20491;-53
2022/05/01 07:02:25;;;;;;;8.35;6.38;;;13.20;85.50;;;;;;5082995;28;20048;-48
2022/05/01 07:04:52;;;;;;;11.70;6.88;;;13.30;84.70;;;;;;5082998;28;20048;-50
2022/05/01 07:07:18;;;;;;;8.52;6.70;;;13.50;84.40;;;;;;5084458;28;20048;-51
2022/05/01 07:09:45;;;;;;;8.27;6.47;;;13.60;83.70;;;;;;5081245;28;20445;-50
2022/05/01 07:12:12;;;;;;;11.43;7.18;;;13.70;82.50;;;;;;5085201;28;20106;-52
2022/05/01 07:14:39;;;;;;;8.05;6.20;;;13.70;82.30;;;;;;5085534;28;20119;-51
2022/05/01 07:17:06;;;;;;;9.15;6.47;;;13.90;82.40;;;;;;5085669;28;20058;-50
2022/05/01 07:19:33;;;;;;;8.25;6.28;;;14.10;81.50;;;;;;5085137;28;20115;-47
2022/05/01 07:21:59;;;;;;;8.68;6.15;;;14.20;81.00;;;;;;5086045;28;20111;-51
2022/05/01 07:24:26;;;;;;;8.25;6.40;;;14.40;81.20;;;;;;5082718;28;20086;-53
2022/05/01 07:26:53;;;;;;;9.35;6.45;;;14.50;79.90;;;;;;5082959;28;20518;-55
2022/05/01 07:29:20;;;;;;;11.45;6.00;;;14.50;78.80;;;;;;5080902;28;20091;-56
2022/05/01 07:31:46;;;;;;;7.50;5.40;;;14.50;77.30;;;;;;5082874;28;20040;-52
2022/05/01 07:34:13;;;;;;;7.15;5.15;;;14.50;75.10;;;;;;5081316;28;20383;-53
2022/05/01 07:36:40;;;;;;;10.10;6.03;;;14.40;76.10;;;;;;5076825;28;20063;-51
2022/05/01 07:39:06;;;;;;;7.68;5.60;;;14.50;76.80;;;;;;5076992;28;20062;-48
2022/05/01 07:41:35;;;;;;;9.52;4.80;;;14.50;76.30;;;;;;5085515;28;20036;-49
2022/05/01 07:44:02;;;;;;;7.63;4.20;;;14.60;75.00;;;;;;5082015;28;20059;-54
2022/05/01 07:46:29;;;;;;;5.78;3.75;;;14.60;73.00;;;;;;5087176;28;20434;-48
2022/05/01 07:48:56;;;;;;;9.23;3.80;;;14.60;70.90;;;;;;5083536;28;20040;-52
2022/05/01 07:51:22;;;;;;;7.95;3.97;;;14.50;70.10;;;;;;5084568;28;20110;-47
2022/05/01 07:53:49;;;;;;;8.77;3.90;;;14.50;69.90;;;;;;5082808;28;20064;-51
2022/05/01 07:56:16;;;;;;;6.60;4.15;;;14.50;70.40;;;;;;5084176;28;20070;-48
2022/05/01 07:58:43;;;;;;;7.13;3.83;;;14.50;70.60;;;;;;5087388;28;20060;-50
2022/05/01 08:01:09;;;;;;;6.53;3.78;;;14.60;71.50;;;;;;5080916;28;20114;-52
2022/05/01 08:06:22;;;;;;;;;;;14.60;71.00;;;;;;5079987;28;20041;-49
2022/05/01 08:08:49;;;;;;;5.32;4.18;;;14.70;71.00;;;;;;5085231;28;19920;-50
2022/05/01 08:11:16;;;;;;;6.68;4.30;;;14.80;70.90;;;;;;5076784;28;20032;-51
2022/05/01 08:13:42;;;;;;;8.05;4.18;;;14.80;72.10;;;;;;5078401;28;20168;-51
2022/05/01 08:16:09;;;;;;;8.48;4.88;;;14.90;70.90;;;;;;5083399;28;20032;-52
2022/05/01 08:21:21;;;;;;;6.90;4.22;;;15.00;71.50;;;;;;5084137;28;20138;-49
2022/05/01 08:23:49;;;;;;;4.97;4.35;;;15.00;70.00;;;;;;5082105;28;20037;-49
2022/05/01 08:26:21;;;;;;;8.65;4.68;;;15.00;70.40;;;;;;5077053;28;20545;-51
2022/05/01 08:28:48;;;;;;;8.13;4.32;;;15.10;70.60;;;;;;5075563;28;20387;-52
2022/05/01 08:31:15;;;;;;;8.15;4.50;;;15.10;70.50;;;;;;5082403;28;20089;-51
2022/05/01 08:33:42;;;;;;;8.25;3.90;;;15.10;70.00;;;;;;5080035;28;20377;-52
2022/05/01 08:36:08;;;;;;;7.05;4.25;;;15.10;68.60;;;;;;5077409;28;20078;-48
2022/05/01 08:38:39;;;;;;;9.05;4.25;;;15.10;69.00;;;;;;5085514;28;20048;-50
2022/05/01 08:41:06;;;;;;;4.53;3.83;;;15.20;68.60;;;;;;5093467;28;20506;-54
2022/05/01 08:43:35;;;;;;;7.95;4.22;;;15.30;67.60;;;;;;5093267;28;20093;-50
2022/05/01 08:46:02;;;;;;;8.00;4.35;;;15.30;68.90;;;;;;5078835;28;20494;-51
2022/05/01 08:48:29;;;;;;;7.25;4.50;;;15.50;69.10;;;;;;5077888;28;20540;-51
2022/05/01 08:50:56;;;;;;;7.07;4.20;;;15.50;69.30;;;;;;5083967;28;20044;-48
2022/05/01 08:53:23;;;;;;;6.28;3.95;;;15.70;69.20;;;;;;5078066;28;20068;-48
2022/05/01 08:55:49;;;;;;;6.68;4.15;;;15.80;68.70;;;;;;5076078;28;20037;-49
2022/05/01 08:58:16;;;;;;;5.85;3.97;;;15.90;67.30;;;;;;5073749;28;20075;-47
2022/05/01 09:00:43;;;;;;;8.20;4.00;;;15.90;66.60;;;;;;5090079;28;20036;-53
2022/05/01 09:03:10;;;;;;;6.20;4.20;;;16.00;66.90;;;;;;5092328;28;20039;-52
2022/05/01 09:05:37;;;;;;;8.60;3.45;;;16.10;65.80;;;;;;5075557;28;20072;-47
2022/05/01 09:08:03;;;;;;;5.68;3.70;;;16.10;66.20;;;;;;5073521;28;20102;-51
2022/05/01 09:10:30;;;;;;;4.88;3.47;;;16.30;65.20;;;;;;5079320;28;20049;-52
2022/05/01 09:12:57;;;;;;;8.27;3.95;;;16.30;65.30;;;;;;5073666;28;20372;-53
2022/05/01 09:15:24;;;;;;;5.35;3.63;;;16.30;63.80;;;;;;5072128;28;20066;-49
2022/05/01 09:17:51;;;;;;;5.00;3.63;;;16.30;64.50;;;;;;5072354;28;20048;-53
2022/05/01 09:20:18;;;;;;;24.50;4.90;;;16.30;64.20;;;;;;5081700;28;20097;-51
2022/05/01 09:22:45;;;;;;;6.70;4.03;;;16.20;64.10;;;;;;5093111;28;20048;-53
2022/05/01 09:25:12;;;;;;;7.68;3.85;;;16.10;64.20;;;;;;5092910;28;20055;-50
2022/05/01 09:27:39;;;;;;;6.68;3.58;;;16.10;64.20;;;;;;5080053;28;20056;-51
2022/05/01 09:30:06;;;;;;;6.40;4.20;;;16.10;64.60;;;;;;5073492;28;20045;-52
2022/05/01 09:32:33;;;;;;;5.45;3.67;;;16.10;64.40;;;;;;5073515;28;20079;-48
2022/05/01 09:35:00;;;;;;;8.77;3.95;;;16.00;64.30;;;;;;5081712;28;20040;-52
2022/05/01 09:37:27;;;;;;;8.07;3.78;;;16.10;64.60;;;;;;5079251;28;20032;-49
2022/05/01 09:39:54;;;;;;;5.45;3.72;;;16.20;64.40;;;;;;5081023;28;20036;-55
2022/05/01 09:42:24;;;;;;;5.72;3.33;;;16.20;62.80;;;;;;5082750;28;20411;-48
2022/05/01 09:44:51;;;;;;;5.50;3.65;;;16.20;63.40;;;;;;5083947;28;20672;-49
2022/05/01 09:47:18;;;;;;;9.02;3.58;;;16.20;63.10;;;;;;5083121;28;20037;-53
2022/05/01 09:49:45;;;;;;;7.13;3.50;;;16.20;63.90;;;;;;5084819;28;20040;-53
2022/05/01 09:52:12;;;;;;;4.88;3.90;;;16.40;63.70;;;;;;5077404;28;20082;-51
2022/05/01 09:54:38;;;;;;;9.10;4.15;;;16.40;64.20;;;;;;5085368;28;20556;-53
2022/05/01 09:57:06;;;;;;;7.47;4.22;;;16.30;63.40;;;;;;5087481;28;20068;-52
2022/05/01 09:59:32;;;;;;;6.30;3.38;;;16.30;64.10;;;;;;5088103;28;20043;-50
2022/05/01 10:02:02;;;;;;;7.00;3.83;;;16.40;64.30;;;;;;5079681;28;20036;-50
2022/05/01 10:04:29;;;;;;;7.60;3.70;;;16.30;63.00;;;;;;5075376;28;20041;-56
2022/05/01 10:06:56;;;;;;;7.82;4.43;;;16.30;63.10;;;;;;5073098;28;20047;-55
2022/05/01 10:09:23;;;;;;;6.72;4.10;;;16.30;64.50;;;;;;5082411;28;20485;-51
2022/05/01 10:11:50;;;;;;;7.47;4.00;;;16.30;64.10;;;;;;5074408;28;20051;-54
2022/05/01 10:14:16;;;;;;;6.68;3.95;;;16.40;63.90;;;;;;5092356;28;20044;-53
2022/05/01 10:16:43;;;;;;;7.78;4.25;;;16.60;64.10;;;;;;5082809;28;20064;-54
2022/05/01 10:19:10;;;;;;;7.57;4.00;;;16.70;63.10;;;;;;5074048;28;20047;-51
2022/05/01 10:21:47;;;;;;;6.50;3.90;;;16.60;61.90;;;;;;5077480;28;20056;-45
2022/05/01 10:24:14;;;;;;;6.00;4.22;;;16.70;63.80;;;;;;5081125;28;20052;-51
2022/05/01 10:26:42;;;;;;;5.22;4.20;;;16.70;63.10;;;;;;5084022;28;20442;-53
2022/05/01 10:29:08;;;;;;;8.63;4.70;;;16.60;64.00;;;;;;5086886;28;20107;-53
2022/05/01 10:34:29;;;;;;;8.50;3.92;;;16.60;63.80;;;;;;5084293;28;20040;-50
2022/05/01 10:36:58;;;;;;;9.20;5.22;;;16.60;63.90;;;;;;5089972;28;20044;-53
2022/05/01 10:39:26;;;;;;;5.65;4.68;;;16.60;63.80;;;;;;5077340;28;20060;-49
2022/05/01 10:41:53;;;;;;;8.20;5.10;;;16.70;63.50;;;;;;5084183;28;20036;-49
2022/05/01 10:44:20;;;;;;;6.85;4.55;;;16.90;64.60;;;;;;5083910;28;20097;-50
2022/05/01 10:46:47;;;;;;;6.72;4.47;;;17.00;63.90;;;;;;5076867;28;20051;-49
2022/05/01 10:49:14;;;;;;;5.60;4.00;;;17.20;64.40;;;;;;5076161;28;20055;-48
2022/05/01 10:51:40;;;;;;;8.73;4.82;;;17.40;63.60;;;;;;5089552;28;20086;-48
2022/05/01 10:54:08;;;;;;;5.47;4.03;;;17.60;62.80;;;;;;5091442;28;20404;-49
2022/05/01 10:56:40;;;;;;;6.75;4.35;;;17.60;61.80;;;;;;5086399;28;20048;-52
2022/05/01 10:59:27;;;;;;;9.75;5.00;;;17.50;61.90;;;;;;5086275;28;20555;-53
2022/05/01 11:01:54;;;;;;;8.90;4.05;;;17.40;61.10;;;;;;5084355;28;20068;-52
2022/05/01 11:04:21;;;;;;;5.13;3.88;;;17.30;60.40;;;;;;5091097;28;20065;-52
2022/05/01 11:06:47;;;;;;;6.38;4.30;;;17.30;62.20;;;;;;5066694;28;20475;-47
2022/05/01 11:09:14;;;;;;;6.78;4.32;;;17.40;60.70;;;;;;5088320;28;20041;-47
2022/05/01 11:11:41;;;;;;;6.55;4.30;;;17.20;60.70;;;;;;5082085;28;20040;-53
2022/05/01 11:14:08;;;;;;;8.73;5.00;;;17.20;61.70;;;;;;5079630;28;20116;-52
2022/05/01 11:16:34;;;;;;;7.15;4.28;;;17.10;61.50;;;;;;5083000;28;20111;-52
2022/05/01 11:19:01;;;;;;;6.43;4.00;;;16.90;61.70;;;;;;5088381;28;20426;-53
2022/05/01 11:21:28;;;;;;;6.75;4.03;;;16.70;61.90;;;;;;5085771;28;20044;-50
2022/05/01 11:23:55;;;;;;;6.85;5.03;;;16.70;62.70;;;;;;5078033;28;20066;-49
2022/05/01 11:26:22;;;;;;;8.23;4.82;;;16.60;63.10;;;;;;5085687;28;20553;-49
2022/05/01 11:28:49;;;;;;;9.07;5.22;;;16.60;63.20;;;;;;5082788;28;20036;-47
2022/05/01 11:31:15;;;;;;;7.72;4.65;;;16.70;63.70;;;;;;5084084;28;20535;-53
2022/05/01 11:33:42;;;;;;;7.53;5.10;;;16.90;63.20;;;;;;5081475;28;20076;-48
2022/05/01 11:36:09;;;;;;;7.18;4.63;;;17.00;63.20;;;;;;5089991;28;20058;-51
2022/05/01 11:38:36;;;;;;;8.68;5.07;;;17.00;63.40;;;;;;5086510;28;20119;-52
2022/05/01 11:41:03;;;;;;;7.85;5.10;;;16.90;63.60;;;;;;5084215;28;20044;-48
2022/05/01 11:43:29;;;;;;;8.13;5.53;;;16.80;64.40;;;;;;5094704;28;20067;-50
2022/05/01 11:45:56;;;;;;;11.20;5.53;;;16.60;65.60;;;;;;5087863;28;20086;-48
2022/05/01 11:48:23;;;;;;;7.55;5.47;;;16.50;66.20;;;;;;5086003;28;20037;-47
2022/05/01 11:50:51;;;;;;;7.32;5.32;;;16.40;65.90;;;;;;5079362;28;20040;-51
2022/05/01 11:53:18;;;;;;;9.15;5.25;;;16.20;65.90;;;;;;5086754;28;20044;-49
2022/05/01 12:04:07;;;;;;;7.53;4.87;;;15.70;68.90;;;;;;5080759;28;20470;-48
2022/05/01 12:06:34;;;;;;;10.80;5.38;;;15.60;70.70;;;;;;5084194;28;20114;-51
2022/05/01 12:09:01;;;;;;;8.05;5.53;;;15.40;71.00;;;;;;5081167;28;21010;-48
2022/05/01 12:11:29;;;;;;;10.77;5.90;;;15.30;71.50;;;;;;5076542;28;20491;-53
2022/05/01 12:13:56;;;;;;;8.77;6.15;;;15.20;73.30;;;;;;5092788;28;20044;-50
2022/05/01 12:16:22;;;;;;;12.32;6.35;;;15.00;74.40;;;;;;5081767;28;20471;-49
2022/05/01 12:18:50;;;;;;;9.80;5.65;;;14.90;75.20;;;;;;5084949;28;20037;-51
2022/05/01 12:21:16;;;;;;;6.57;5.50;;;14.80;76.10;;;;;;5074484;28;20044;-52
2022/05/01 12:23:43;;;;;;;6.85;5.90;;;14.80;76.60;;;;;;5084030;28;20046;-50
2022/05/01 12:26:10;;;;;;;12.60;5.78;;;14.70;77.40;;;;;;5082781;28;20381;-52
2022/05/01 12:28:37;;;;;;;10.98;5.63;;;14.70;76.70;;;;;;5076653;28;20049;-51
2022/05/01 12:31:04;;;;;;;7.55;5.55;;;14.70;76.50;;;;;;5074058;28;20047;-47
2022/05/01 12:33:31;;;;;;;12.18;7.28;;;14.60;78.00;;;;;;5072955;28;20052;-47
2022/05/01 12:35:58;;;;;;;9.48;6.38;;;14.70;79.70;;;;;;5074390;28;20545;-50
2022/05/01 12:38:25;;;;;;;10.43;6.45;;;14.70;76.80;;;;;;5074150;28;20045;-55
2022/05/01 12:43:53;;;;;;;7.75;5.97;;;14.90;76.90;;;;;;5074220;28;20089;-51
2022/05/01 12:46:21;;;;;;;8.55;6.28;;;15.00;77.90;;;;;;5092876;28;20067;-49
2022/05/01 12:48:48;;;;;;;8.85;5.97;;;15.10;76.30;;;;;;5073855;28;20040;-53
2022/05/01 12:51:15;;;;;;;8.88;5.78;;;15.10;75.00;;;;;;5093320;28;20089;-52
2022/05/01 12:53:42;;;;;;;8.02;6.13;;;15.20;74.80;;;;;;5079637;28;20060;-51
2022/05/01 12:56:09;;;;;;;8.38;6.25;;;15.20;75.60;;;;;;5093051;28;20040;-49
2022/05/01 12:58:37;;;;;;;8.55;6.57;;;15.30;75.70;;;;;;5093133;28;20060;-50
2022/05/01 13:01:04;;;;;;;9.63;6.07;;;15.30;77.30;;;;;;5093171;28;20040;-46
2022/05/01 13:03:31;;;;;;;8.35;7.00;;;15.40;77.50;;;;;;5093365;28;20374;-52
2022/05/01 13:05:58;;;;;;;7.85;6.70;;;15.30;77.10;;;;;;5093273;28;20039;-50
2022/05/01 13:08:24;;;;;;;8.75;6.78;;;15.30;79.90;;;;;;5093082;28;20067;-53
2022/05/01 13:10:51;;;;;;;8.98;7.03;;;15.40;79.80;;;;;;5073866;28;20446;-51
2022/05/01 13:13:18;;;;;;;10.75;7.28;;;15.30;77.50;;;;;;5073698;28;20060;-54
2022/05/01 13:15:45;;;;;;;7.97;6.88;;;15.30;82.60;;;;;;5073498;28;20495;-55
2022/05/01 13:18:12;;;;;;;8.55;7.10;;;15.40;79.30;;;;;;5073624;28;20479;-50
2022/05/01 13:20:39;;;;;;;12.63;8.18;;;15.40;80.40;;;;;;5084606;28;20055;-48